Погода Святая Воляна 2 недели

Брестская область, Белоруссия

17 - 30 июля
  • 17июля
    Сегодня
    +18°
    +30°
    Практически безоблачно
    ВремяПогодаТемператураВлажностьДавлениеВетер, м/сВероятность осадков
    00:00Небольшая облачность+23°C75 %744 мм3.4 м/с2 %
    03:00Практически безоблачно+23°C80 %744 мм3.5 м/с7 %
    06:00Практически безоблачно+21°C93 %744 мм1.7 м/с11 %
    09:00Облачно с прояснениями+24°C85 %747 мм4.2 м/с13 %
    12:00Практически безоблачно+27°C67 %747 мм4.0 м/с12 %
    15:00Практически безоблачно+29°C50 %747 мм3.5 м/с2 %
    18:00Облачно с прояснениями+29°C50 %747 мм2.8 м/с2 %
    21:00Небольшая облачность+28°C63 %748 мм0.7 м/с3 %
  • 18июля
    Четверг
    +15°
    +27°
    Ясно и безоблачно
    ВремяПогодаТемператураВлажностьДавлениеВетер, м/сВероятность осадков
    00:00Облачно с прояснениями+22°C76 %748 мм2.2 м/с3 %
    03:00Облачно с прояснениями+21°C71 %747 мм3.1 м/с8 %
    06:00Небольшая облачность, ливень+18°C89 %749 мм2.2 м/с59 %
    09:00Небольшая облачность и лёгкий дождик+21°C83 %749 мм1.0 м/с64 %
    12:00Ясно и безоблачно+24°C56 %749 мм3.5 м/с11 %
    15:00Ясно и безоблачно+26°C51 %749 мм4.8 м/с5 %
    18:00Ясно и безоблачно+26°C47 %748 мм4.9 м/с9 %
    21:00Ясно и безоблачно+24°C62 %749 мм1.9 м/с2 %
  • 19июля
    Пятница
    +13°
    +26°
    Ясно и безоблачно
    ВремяПогодаТемператураВлажностьДавлениеВетер, м/сВероятность осадков
    00:00Ясно и безоблачно+20°C66 %749 мм3.2 м/с2 %
    03:00Ясно и безоблачно+17°C73 %749 мм3.0 м/с2 %
    06:00Облачно с прояснениями+16°C85 %749 мм2.4 м/с2 %
    09:00Практически безоблачно+19°C77 %750 мм2.7 м/с2 %
    12:00Практически безоблачно+22°C54 %750 мм3.6 м/с2 %
    15:00Ясно и безоблачно+25°C45 %749 мм4.1 м/с2 %
    18:00Ясно и безоблачно+25°C46 %748 мм4.1 м/с2 %
    21:00Ясно и безоблачно+22°C64 %747 мм1.8 м/с2 %
  • 20июля
    Суббота
    +14°
    +25°
    Практически безоблачно
    ВремяПогодаТемператураВлажностьДавлениеВетер, м/сВероятность осадков
    00:00Ясно и безоблачно+18°C68 %747 мм2.6 м/с2 %
    03:00Ясно и безоблачно+16°C73 %746 мм3.1 м/с2 %
    06:00Ясно и безоблачно+14°C84 %746 мм1.7 м/с2 %
    09:00Небольшая облачность+19°C65 %746 мм2.2 м/с2 %
    12:00Облачно с прояснениями+22°C53 %745 мм2.9 м/с2 %
    15:00Практически безоблачно+24°C43 %744 мм2.6 м/с2 %
    18:00Ясно и безоблачно+24°C42 %743 мм2.4 м/с2 %
    21:00Ясно и безоблачно+21°C64 %743 мм1.9 м/с2 %
  • 21июля
    Воскресенье
    +14°
    +27°
    Практически безоблачно
    ВремяПогодаТемператураВлажностьДавлениеВетер, м/сВероятность осадков
    00:00Ясно и безоблачно+19°C58 %743 мм0.4 м/с2 %
    03:00Ясно и безоблачно+15°C83 %742 мм2.0 м/с2 %
    06:00Ясно и безоблачно+15°C83 %742 мм1.2 м/с2 %
    09:00Ясно и безоблачно+21°C64 %742 мм1.0 м/с2 %
    12:00Практически безоблачно+24°C42 %742 мм2.0 м/с13 %
    15:00Практически безоблачно+26°C38 %741 мм1.9 м/с22 %
    18:00Небольшая облачность+26°C36 %740 мм1.8 м/с12 %
    21:00Ясно и безоблачно+23°C57 %741 мм2.0 м/с6 %
Мы используем cookies
Соглашаюсь